Station History

Weather Underground - logo

Station Historical Data
Daily Summary for October 12, 2017 Units:  English    Metric   Both
« Previous Day
Next Day »
Daily Weekly Monthly Yearly Custom
  High: Low: Average:
Temperature: 72.3 °F 44.5 °F 56.8 °F
Dew Point: 48.0 °F 35.2 °F 41.9 °F
Humidity: 86 % 26 % 61 %
Wind Speed: 6.9 mph 0.0 mph 1 mph
Wind Gust: 6.9 mph - -
Wind:- - South
Pressure: 30.07 in 29.95 in -
Precipitation: 0.00 in    
Historical Graphs
 
 
Tabular Data for October 12, 2017
Time Temperature Dew Point Pressure Wind Wind Speed Wind Gust Humidity Rainfall Rate (Hourly)
00:02 54.6 °F 43.9 °F 29.95 in Calm     67 % 0.00 in
00:07 54.3 °F 43.6 °F 29.95 in Calm     67 % 0.00 in
00:13 54.0 °F 43.7 °F 29.95 in Calm     68 % 0.00 in
00:18 53.7 °F 43.0 °F 29.95 in Calm     67 % 0.00 in
00:23 53.6 °F 42.5 °F 29.95 in Calm     66 % 0.00 in
00:28 53.8 °F 42.3 °F 29.95 in Calm     65 % 0.00 in
00:33 53.8 °F 42.3 °F 29.95 in Calm     65 % 0.00 in
00:38 53.7 °F 42.6 °F 29.95 in Calm     66 % 0.00 in
00:43 53.5 °F 42.8 °F 29.95 in Calm     67 % 0.00 in
00:48 53.2 °F 42.5 °F 29.95 in Calm     67 % 0.00 in
00:53 53.0 °F 42.3 °F 29.95 in Calm     67 % 0.00 in
00:58 52.7 °F 42.0 °F 29.96 in Calm     67 % 0.00 in
01:03 52.6 °F 41.6 °F 29.96 in Calm     66 % 0.00 in
01:08 52.6 °F 41.6 °F 29.96 in Calm     66 % 0.00 in
01:13 52.4 °F 41.8 °F 29.96 in Calm     67 % 0.00 in
01:19 52.1 °F 41.9 °F 29.96 in Calm     68 % 0.00 in
01:23 52.0 °F 42.1 °F 29.96 in Calm     69 % 0.00 in
01:29 51.7 °F 42.6 °F 29.97 in Calm     71 % 0.00 in
01:34 51.3 °F 42.6 °F 29.97 in Calm     72 % 0.00 in
01:39 51.1 °F 42.0 °F 29.97 in Calm     71 % 0.00 in
01:44 50.9 °F 42.2 °F 29.97 in Calm     72 % 0.00 in
01:49 50.9 °F 40.7 °F 29.97 in Calm     68 % 0.00 in
01:54 50.9 °F 41.5 °F 29.97 in Calm     70 % 0.00 in
01:59 51.1 °F 40.9 °F 29.97 in Calm     68 % 0.00 in
02:04 51.0 °F 41.6 °F 29.97 in Calm     70 % 0.00 in
02:09 50.7 °F 42.0 °F 29.97 in Calm     72 % 0.00 in
02:14 50.1 °F 41.4 °F 29.98 in Calm     72 % 0.00 in
02:19 49.9 °F 41.2 °F 29.97 in Calm     72 % 0.00 in
02:24 49.7 °F 41.7 °F 29.97 in Calm     74 % 0.00 in
02:29 49.3 °F 41.4 °F 29.97 in Calm     74 % 0.00 in
02:34 49.1 °F 41.5 °F 29.98 in Calm     75 % 0.00 in
02:39 48.9 °F 41.3 °F 29.98 in Calm     75 % 0.00 in
02:44 48.7 °F 41.5 °F 29.98 in Calm     76 % 0.00 in
02:49 48.6 °F 41.7 °F 29.98 in Calm     77 % 0.00 in
02:54 48.5 °F 41.6 °F 29.98 in Calm     77 % 0.00 in
02:59 48.5 °F 41.3 °F 29.98 in Calm     76 % 0.00 in
03:04 48.7 °F 41.5 °F 29.98 in Calm     76 % 0.00 in
03:09 48.6 °F 41.4 °F 29.98 in Calm     76 % 0.00 in
03:14 48.4 °F 41.2 °F 29.98 in Calm     76 % 0.00 in
03:19 48.2 °F 41.3 °F 29.98 in Calm     77 % 0.00 in
03:24 48.0 °F 41.1 °F 29.98 in Calm     77 % 0.00 in
03:29 48.0 °F 41.5 °F 29.98 in Calm     78 % 0.00 in
03:34 47.9 °F 41.4 °F 29.98 in Calm     78 % 0.00 in
03:39 47.9 °F 41.7 °F 29.98 in Calm     79 % 0.00 in
03:44 47.8 °F 41.6 °F 29.98 in Calm     79 % 0.00 in
03:49 47.7 °F 41.8 °F 29.98 in Calm     80 % 0.00 in
03:54 47.5 °F 41.6 °F 29.98 in Calm     80 % 0.00 in
03:59 47.4 °F 41.9 °F 29.98 in Calm     81 % 0.00 in
04:04 47.3 °F 41.8 °F 29.98 in Calm     81 % 0.00 in
04:09 47.2 °F 41.7 °F 29.98 in Calm     81 % 0.00 in
04:19 47.0 °F 41.5 °F 29.99 in Calm     81 % 0.00 in
04:29 47.0 °F 41.8 °F 29.99 in Calm     82 % 0.00 in
04:30 47.0 °F 41.8 °F 29.99 in Calm     82 % 0.00 in
04:35 47.1 °F 41.6 °F 29.99 in Calm     81 % 0.00 in
04:40 47.1 °F 41.6 °F 29.99 in Calm     81 % 0.00 in
04:45 47.1 °F 41.6 °F 29.99 in Calm     81 % 0.00 in
04:50 46.9 °F 41.4 °F 29.99 in Calm     81 % 0.00 in
04:55 46.9 °F 41.4 °F 29.99 in Calm     81 % 0.00 in
05:00 46.7 °F 41.5 °F 30.00 in Calm     82 % 0.00 in
05:05 46.4 °F 41.5 °F 30.00 in Calm     83 % 0.00 in
05:10 46.1 °F 41.5 °F 30.00 in Calm     84 % 0.00 in
05:15 45.9 °F 41.6 °F 30.00 in Calm     85 % 0.00 in
05:20 45.6 °F 41.7 °F 30.00 in Calm     86 % 0.00 in
05:25 45.4 °F 41.5 °F 30.00 in Calm     86 % 0.00 in
05:30 45.4 °F 41.5 °F 30.00 in Calm     86 % 0.00 in
05:35 45.7 °F 41.4 °F 30.00 in Calm     85 % 0.00 in
05:40 45.7 °F 41.1 °F 30.00 in Calm     84 % 0.00 in
05:45 45.7 °F 40.8 °F 30.00 in Calm     83 % 0.00 in
05:50 45.6 °F 40.7 °F 30.00 in Calm     83 % 0.00 in
05:55 45.5 °F 40.6 °F 30.00 in Calm     83 % 0.00 in
06:00 45.5 °F 40.6 °F 30.00 in Calm     83 % 0.00 in
06:05 45.7 °F 40.5 °F 30.00 in Calm     82 % 0.00 in
06:10 46.2 °F 40.7 °F 30.01 in Calm     81 % 0.00 in
06:15 46.4 °F 40.6 °F 30.01 in Calm     80 % 0.00 in
06:20 46.4 °F 40.2 °F 30.01 in Calm     79 % 0.00 in
06:30 46.1 °F 40.3 °F 30.01 in Calm     80 % 0.00 in
06:35 45.8 °F 40.0 °F 30.01 in Calm     80 % 0.00 in
06:40 45.6 °F 39.5 °F 30.01 in Calm     79 % 0.00 in
06:45 45.5 °F 39.4 °F 30.01 in Calm     79 % 0.00 in
06:50 45.3 °F 39.2 °F 30.02 in Calm     79 % 0.00 in
06:55 45.1 °F 39.0 °F 30.02 in Calm     79 % 0.00 in
07:00 44.9 °F 38.8 °F 30.02 in Calm     79 % 0.00 in
07:05 44.9 °F 39.1 °F 30.02 in Calm     80 % 0.00 in
07:10 44.6 °F 39.1 °F 30.03 in Calm     81 % 0.00 in
07:15 44.5 °F 39.0 °F 30.03 in Calm     81 % 0.00 in
07:20 44.5 °F 38.7 °F 30.03 in Calm     80 % 0.00 in
07:25 44.6 °F 38.8 °F 30.03 in Calm     80 % 0.00 in
07:30 44.7 °F 38.9 °F 30.03 in Calm     80 % 0.00 in
07:35 44.8 °F 38.7 °F 30.04 in Calm     79 % 0.00 in
07:40 45.1 °F 39.0 °F 30.04 in Calm     79 % 0.00 in
07:45 45.5 °F 39.0 °F 30.04 in Calm     78 % 0.00 in
07:50 45.9 °F 39.1 °F 30.04 in Calm     77 % 0.00 in
07:55 46.1 °F 39.3 °F 30.05 in Calm     77 % 0.00 in
08:01 46.3 °F 39.5 °F 30.05 in Calm     77 % 0.00 in
08:06 46.7 °F 39.9 °F 30.05 in Calm     77 % 0.00 in
08:11 47.4 °F 40.2 °F 30.05 in NNW 1.2 mph   76 % 0.00 in
08:16 48.2 °F 40.6 °F 30.05 in Calm     75 % 0.00 in
08:21 49.2 °F 40.9 °F 30.05 in Calm     73 % 0.00 in
08:26 49.8 °F 40.8 °F 30.06 in North 1.2 mph 1.2 mph 71 % 0.00 in
08:31 50.5 °F 40.3 °F 30.06 in Calm     68 % 0.00 in
08:36 51.4 °F 40.8 °F 30.06 in SSE 1.2 mph 1.2 mph 67 % 0.00 in
08:41 51.9 °F 40.5 °F 30.06 in SE 1.2 mph 1.2 mph 65 % 0.00 in
08:46 52.4 °F 40.6 °F 30.06 in SE 1.2 mph 1.2 mph 64 % 0.00 in
08:51 52.7 °F 39.6 °F 30.06 in SE 2.3 mph 2.3 mph 61 % 0.00 in
08:56 53.3 °F 39.8 °F 30.07 in SE 2.3 mph 2.3 mph 60 % 0.00 in
09:01 54.1 °F 39.6 °F 30.07 in ESE 3.5 mph 3.5 mph 58 % 0.00 in
09:06 54.5 °F 39.1 °F 30.07 in SE 3.5 mph 3.5 mph 56 % 0.00 in
09:11 55.1 °F 40.1 °F 30.07 in SSE 2.3 mph 2.3 mph 57 % 0.00 in
09:16 55.8 °F 39.9 °F 30.07 in South 3.0 mph 3.0 mph 55 % 0.00 in
09:21 56.4 °F 40.4 °F 30.07 in NE 3.0 mph 3.0 mph 55 % 0.00 in
09:26 57.0 °F 39.5 °F 30.07 in ENE 2.3 mph 2.3 mph 52 % 0.00 in
09:31 57.6 °F 39.6 °F 30.07 in SSW 3.5 mph 3.5 mph 51 % 0.00 in
09:36 58.0 °F 39.5 °F 30.07 in East 4.0 mph 4.0 mph 50 % 0.00 in
09:41 58.2 °F 39.6 °F 30.07 in SE 1.2 mph 1.2 mph 50 % 0.00 in
09:46 58.5 °F 38.9 °F 30.07 in South 4.0 mph 4.0 mph 48 % 0.00 in
09:51 59.0 °F 38.8 °F 30.07 in SE 3.5 mph 3.5 mph 47 % 0.00 in
09:56 59.4 °F 38.6 °F 30.07 in East 4.6 mph 4.6 mph 46 % 0.00 in
10:01 59.6 °F 39.3 °F 30.07 in South 5.8 mph 5.8 mph 47 % 0.00 in
10:06 60.1 °F 38.7 °F 30.07 in South 3.5 mph 3.5 mph 45 % 0.00 in
10:11 60.4 °F 40.6 °F 30.07 in SSE 1.0 mph 1.0 mph 48 % 0.00 in
10:16 60.8 °F 40.4 °F 30.07 in SSE 3.5 mph 3.5 mph 47 % 0.00 in
10:21 61.3 °F 40.3 °F 30.07 in South 2.3 mph 2.3 mph 46 % 0.00 in
10:26 61.8 °F 40.2 °F 30.07 in SE 2.3 mph 2.3 mph 45 % 0.00 in
10:31 61.9 °F 40.9 °F 30.07 in SSW 2.0 mph 2.0 mph 46 % 0.00 in
10:37 62.2 °F 40.0 °F 30.07 in ENE 2.3 mph 2.3 mph 44 % 0.00 in
10:42 62.5 °F 39.7 °F 30.07 in SSE 4.6 mph 4.6 mph 43 % 0.00 in
10:47 62.7 °F 39.3 °F 30.07 in East 4.6 mph 4.6 mph 42 % 0.00 in
10:52 62.7 °F 39.9 °F 30.07 in South 4.6 mph 4.6 mph 43 % 0.00 in
10:57 62.9 °F 40.6 °F 30.07 in SE 2.3 mph 2.3 mph 44 % 0.00 in
11:02 63.1 °F 40.2 °F 30.07 in SE 3.5 mph 3.5 mph 43 % 0.00 in
11:07 63.4 °F 39.9 °F 30.07 in SSW 6.9 mph 6.9 mph 42 % 0.00 in
11:12 63.6 °F 38.8 °F 30.07 in ENE 4.6 mph 4.6 mph 40 % 0.00 in
11:17 63.7 °F 40.2 °F 30.07 in SSE 2.3 mph 2.3 mph 42 % 0.00 in
11:22 64.2 °F 41.2 °F 30.07 in NW 3.5 mph 3.5 mph 43 % 0.00 in
11:27 64.7 °F 40.4 °F 30.07 in South 2.3 mph 2.3 mph 41 % 0.00 in
11:32 65.0 °F 40.1 °F 30.07 in South 5.0 mph 5.0 mph 40 % 0.00 in
11:37 65.5 °F 40.5 °F 30.07 in NNW 2.3 mph 2.3 mph 40 % 0.00 in
11:42 65.5 °F 39.2 °F 30.07 in ENE 3.5 mph 3.5 mph 38 % 0.00 in
11:47 65.7 °F 40.1 °F 30.07 in ESE 3.5 mph 3.5 mph 39 % 0.00 in
11:52 66.1 °F 40.4 °F 30.06 in ESE 3.5 mph 3.5 mph 39 % 0.00 in
11:57 65.9 °F 39.6 °F 30.06 in ENE 2.3 mph 2.3 mph 38 % 0.00 in
12:02 66.6 °F 40.2 °F 30.06 in SSE 3.5 mph 3.5 mph 38 % 0.00 in
12:07 66.8 °F 40.4 °F 30.06 in ENE 2.3 mph 2.3 mph 38 % 0.00 in
12:12 66.8 °F 38.3 °F 30.06 in South 4.6 mph 4.6 mph 35 % 0.00 in
12:17 67.0 °F 39.9 °F 30.06 in East 2.3 mph 2.3 mph 37 % 0.00 in
12:22 67.1 °F 38.5 °F 30.05 in ESE 4.6 mph 4.6 mph 35 % 0.00 in
12:27 67.8 °F 39.1 °F 30.05 in SSE 4.0 mph 4.0 mph 35 % 0.00 in
12:32 68.3 °F 40.3 °F 30.05 in ESE 3.5 mph 3.5 mph 36 % 0.00 in
12:37 68.7 °F 39.9 °F 30.05 in South 1.2 mph 1.2 mph 35 % 0.00 in
12:42 69.2 °F 40.4 °F 30.05 in SSE 3.5 mph 3.5 mph 35 % 0.00 in
12:47 68.9 °F 40.1 °F 30.05 in ESE 4.6 mph 4.6 mph 35 % 0.00 in
12:52 69.0 °F 38.7 °F 30.05 in SE 3.5 mph 3.5 mph 33 % 0.00 in
12:57 69.1 °F 38.8 °F 30.04 in ESE 5.8 mph 5.8 mph 33 % 0.00 in
13:02 69.4 °F 39.8 °F 30.04 in SSE 5.8 mph 5.8 mph 34 % 0.00 in
13:07 69.6 °F 39.2 °F 30.04 in East 4.6 mph 4.6 mph 33 % 0.00 in
13:12 69.7 °F 41.5 °F 30.03 in SW 1.2 mph 1.2 mph 36 % 0.00 in
13:17 70.2 °F 39.7 °F 30.03 in SE 2.3 mph 2.3 mph 33 % 0.00 in
13:22 70.7 °F 40.9 °F 30.03 in ESE 2.3 mph 2.3 mph 34 % 0.00 in
13:27 70.9 °F 41.1 °F 30.02 in SE 3.5 mph 3.5 mph 34 % 0.00 in
13:32 70.7 °F 38.6 °F 30.02 in SSW 3.5 mph 3.5 mph 31 % 0.00 in
13:35 70.6 °F 40.1 °F 30.02 in WNW 2.3 mph 2.3 mph 33 % 0.00 in
13:40 70.9 °F 39.6 °F 30.02 in NNW 2.3 mph 2.3 mph 32 % 0.00 in
13:45 70.7 °F 39.4 °F 30.02 in West 1.2 mph 1.2 mph 32 % 0.00 in
13:50 71.0 °F 38.8 °F 30.02 in SE 3.5 mph 3.5 mph 31 % 0.00 in
13:55 71.0 °F 40.4 °F 30.01 in SSW 2.3 mph   33 % 0.00 in
14:00 71.7 °F 39.4 °F 30.01 in NE 3.5 mph 3.5 mph 31 % 0.00 in
14:05 71.9 °F 38.8 °F 30.01 in SSW 3.5 mph 3.5 mph 30 % 0.00 in
14:10 71.8 °F 40.3 °F 30.01 in South 1.0 mph 1.0 mph 32 % 0.00 in
14:15 71.8 °F 37.8 °F 30.01 in SE 3.5 mph 3.5 mph 29 % 0.00 in
14:20 71.7 °F 40.3 °F 30.01 in SE 2.3 mph 2.3 mph 32 % 0.00 in
14:25 71.8 °F 39.5 °F 30.00 in ESE 4.6 mph 4.6 mph 31 % 0.00 in
14:30 72.3 °F 40.0 °F 30.01 in SSE 2.0 mph 2.0 mph 31 % 0.00 in
14:35 72.2 °F 38.2 °F 30.00 in NW 3.0 mph 3.0 mph 29 % 0.00 in
14:40 71.8 °F 36.9 °F 30.01 in SSE 2.3 mph 2.3 mph 28 % 0.00 in
14:46 72.0 °F 38.0 °F 30.00 in WNW 2.3 mph 2.3 mph 29 % 0.00 in
14:51 71.2 °F 37.3 °F 30.01 in NW 3.5 mph 3.5 mph 29 % 0.00 in
14:56 71.2 °F 38.2 °F 30.00 in ENE 1.2 mph   30 % 0.00 in
15:01 71.5 °F 37.6 °F 30.00 in NNW 1.2 mph 1.2 mph 29 % 0.00 in
15:06 71.8 °F 36.9 °F 30.00 in South 1.2 mph 1.2 mph 28 % 0.00 in
15:11 72.0 °F 37.1 °F 30.00 in SE 1.2 mph 1.2 mph 28 % 0.00 in
15:16 72.0 °F 38.0 °F 30.00 in Calm     29 % 0.00 in
15:21 72.0 °F 35.2 °F 30.00 in SE 1.2 mph 1.2 mph 26 % 0.00 in
15:26 72.0 °F 38.9 °F 30.00 in Calm     30 % 0.00 in
15:31 71.8 °F 36.0 °F 30.00 in NW 2.3 mph 2.3 mph 27 % 0.00 in
15:36 71.1 °F 38.1 °F 30.00 in NNW 1.2 mph 1.2 mph 30 % 0.00 in
15:41 70.8 °F 37.0 °F 30.00 in Calm     29 % 0.00 in
15:46 71.0 °F 39.6 °F 30.00 in ESE 1.2 mph 1.2 mph 32 % 0.00 in
15:51 71.2 °F 39.8 °F 29.99 in West 1.0 mph   32 % 0.00 in
15:56 71.1 °F 39.7 °F 29.99 in SSE 1.2 mph 1.2 mph 32 % 0.00 in
16:01 71.2 °F 39.8 °F 29.99 in Calm     32 % 0.00 in
16:06 71.2 °F 39.8 °F 29.99 in Calm     32 % 0.00 in
16:11 71.0 °F 38.8 °F 29.99 in SSE 2.3 mph 2.3 mph 31 % 0.00 in
16:16 70.9 °F 39.6 °F 29.99 in SSE 1.2 mph   32 % 0.00 in
16:21 70.9 °F 38.7 °F 29.99 in SE 1.2 mph 1.2 mph 31 % 0.00 in
16:26 70.7 °F 40.9 °F 29.99 in WNW 1.2 mph 1.2 mph 34 % 0.00 in
16:31 70.5 °F 40.8 °F 29.99 in West 2.0 mph 2.0 mph 34 % 0.00 in
16:36 70.1 °F 41.2 °F 29.99 in WNW 1.2 mph 1.2 mph 35 % 0.00 in
17:41 67.7 °F 42.5 °F 29.99 in WSW 1.2 mph   40 % 0.00 in
17:46 67.4 °F 43.5 °F 29.99 in Calm     42 % 0.00 in
17:51 67.0 °F 44.4 °F 29.99 in Calm     44 % 0.00 in
17:56 66.6 °F 45.2 °F 29.99 in Calm     46 % 0.00 in
18:01 66.1 °F 45.3 °F 29.99 in Calm     47 % 0.00 in
18:06 65.6 °F 44.8 °F 30.00 in Calm     47 % 0.00 in
18:11 65.1 °F 46.0 °F 30.00 in Calm     50 % 0.00 in
18:16 64.7 °F 47.2 °F 30.00 in Calm     53 % 0.00 in
18:21 64.2 °F 46.7 °F 30.00 in Calm     53 % 0.00 in
18:26 63.8 °F 45.8 °F 30.00 in Calm     52 % 0.00 in
18:31 63.4 °F 46.5 °F 30.00 in Calm     54 % 0.00 in
18:36 62.9 °F 47.0 °F 30.00 in Calm     56 % 0.00 in
18:41 62.2 °F 46.8 °F 30.00 in Calm     57 % 0.00 in
18:46 61.6 °F 46.7 °F 30.00 in Calm     58 % 0.00 in
18:51 61.1 °F 46.2 °F 30.00 in Calm     58 % 0.00 in
18:52 61.1 °F 46.2 °F 30.00 in Calm     58 % 0.00 in
18:57 60.6 °F 46.6 °F 30.00 in Calm     60 % 0.00 in
19:02 60.2 °F 46.7 °F 30.01 in Calm     61 % 0.00 in
19:07 59.8 °F 46.7 °F 30.01 in Calm     62 % 0.00 in
19:12 59.6 °F 46.6 °F 30.01 in Calm     62 % 0.00 in
19:17 59.3 °F 46.7 °F 30.01 in Calm     63 % 0.00 in
19:22 59.0 °F 46.4 °F 30.01 in Calm     63 % 0.00 in
19:27 58.5 °F 47.2 °F 30.01 in Calm     66 % 0.00 in
19:32 58.0 °F 46.7 °F 30.01 in Calm     66 % 0.00 in
19:37 57.6 °F 47.5 °F 30.01 in Calm     69 % 0.00 in
19:42 57.3 °F 48.0 °F 30.01 in Calm     71 % 0.00 in
19:47 57.1 °F 47.8 °F 30.02 in Calm     71 % 0.00 in
19:52 56.8 °F 47.5 °F 30.02 in Calm     71 % 0.00 in
19:57 56.5 °F 47.2 °F 30.02 in Calm     71 % 0.00 in
20:02 56.1 °F 47.6 °F 30.02 in Calm     73 % 0.00 in
20:04 55.9 °F 47.4 °F 30.02 in Calm     73 % 0.00 in
20:09 55.5 °F 47.7 °F 30.02 in Calm     75 % 0.00 in
20:14 55.3 °F 47.2 °F 30.02 in Calm     74 % 0.00 in
20:19 55.3 °F 47.2 °F 30.02 in Calm     74 % 0.00 in
20:24 55.2 °F 47.1 °F 30.02 in Calm     74 % 0.00 in
20:29 55.0 °F 46.9 °F 30.02 in Calm     74 % 0.00 in
20:34 54.8 °F 46.7 °F 30.02 in Calm     74 % 0.00 in
20:39 54.5 °F 46.7 °F 30.02 in Calm     75 % 0.00 in
20:45 54.3 °F 46.5 °F 30.02 in Calm     75 % 0.00 in
20:50 54.1 °F 46.7 °F 30.02 in Calm     76 % 0.00 in
20:55 53.9 °F 46.5 °F 30.03 in Calm     76 % 0.00 in
21:00 54.1 °F 46.3 °F 30.03 in Calm     75 % 0.00 in
21:05 54.0 °F 46.3 °F 30.03 in Calm     75 % 0.00 in
21:10 53.9 °F 45.8 °F 30.03 in Calm     74 % 0.00 in
21:15 53.9 °F 45.4 °F 30.03 in Calm     73 % 0.00 in
21:20 53.8 °F 45.0 °F 30.03 in Calm     72 % 0.00 in
21:25 53.6 °F 45.5 °F 30.03 in Calm     74 % 0.00 in
21:30 53.7 °F 44.9 °F 30.03 in Calm     72 % 0.00 in
21:35 53.8 °F 45.7 °F 30.03 in Calm     74 % 0.00 in
21:40 53.6 °F 45.2 °F 30.04 in Calm     73 % 0.00 in
21:45 53.2 °F 44.8 °F 30.04 in Calm     73 % 0.00 in
21:50 53.0 °F 45.3 °F 30.04 in Calm     75 % 0.00 in
21:55 52.9 °F 45.2 °F 30.04 in Calm     75 % 0.00 in
22:00 52.5 °F 44.8 °F 30.04 in Calm     75 % 0.00 in
22:05 52.3 °F 45.3 °F 30.04 in Calm     77 % 0.00 in
22:10 52.1 °F 45.8 °F 30.04 in Calm     79 % 0.00 in
22:15 52.2 °F 45.9 °F 30.04 in Calm     79 % 0.00 in
22:20 52.2 °F 46.2 °F 30.05 in Calm     80 % 0.00 in
22:25 52.0 °F 46.0 °F 30.05 in Calm     80 % 0.00 in
22:30 51.9 °F 45.9 °F 30.05 in Calm     80 % 0.00 in
22:35 51.6 °F 46.0 °F 30.05 in Calm     81 % 0.00 in
22:40 51.4 °F 45.8 °F 30.05 in Calm     81 % 0.00 in
22:45 51.1 °F 45.5 °F 30.05 in Calm     81 % 0.00 in
22:50 51.0 °F 45.7 °F 30.05 in Calm     82 % 0.00 in
22:55 51.0 °F 46.0 °F 30.05 in Calm     83 % 0.00 in
23:00 51.0 °F 45.7 °F 30.05 in Calm     82 % 0.00 in
23:05 51.0 °F 45.7 °F 30.05 in Calm     82 % 0.00 in
23:10 50.9 °F 45.6 °F 30.05 in Calm     82 % 0.00 in
23:15 50.7 °F 45.4 °F 30.05 in Calm     82 % 0.00 in
23:20 50.4 °F 45.1 °F 30.05 in Calm     82 % 0.00 in
23:25 50.2 °F 45.2 °F 30.05 in Calm     83 % 0.00 in
23:30 50.2 °F 44.9 °F 30.05 in Calm     82 % 0.00 in
23:35 50.5 °F 44.2 °F 30.05 in Calm     79 % 0.00 in
23:40 50.7 °F 44.1 °F 30.05 in Calm     78 % 0.00 in
23:45 50.6 °F 43.3 °F 30.05 in Calm     76 % 0.00 in
23:51 50.7 °F 42.7 °F 30.05 in Calm     74 % 0.00 in
23:56 50.7 °F 42.7 °F 30.05 in Calm     74 % 0.00 in
Park Place, Exeter, Tulare County, California, USA
Compliments of Weather Underground - 2.75 mb